sensor_id;sensor_type;location;lat;lon;timestamp;pressure;altitude;pressure_sealevel;temperature;humidity
50356;BME280;36264;51.296;-0.602;2023-02-28T00:00:09;103014.44;;;6.06;91.62
50356;BME280;36264;51.296;-0.602;2023-02-28T00:02:42;103013.56;;;6.06;91.59
50356;BME280;36264;51.296;-0.602;2023-02-28T00:05:10;103011.72;;;6.00;91.46
50356;BME280;36264;51.296;-0.602;2023-02-28T00:07:36;103014.97;;;5.94;91.54
50356;BME280;36264;51.296;-0.602;2023-02-28T00:10:02;103017.34;;;5.87;91.57
50356;BME280;36264;51.296;-0.602;2023-02-28T00:12:28;103020.66;;;5.81;91.46
50356;BME280;36264;51.296;-0.602;2023-02-28T00:14:53;103018.75;;;5.74;91.59
50356;BME280;36264;51.296;-0.602;2023-02-28T00:17:19;103022.97;;;5.70;91.66
50356;BME280;36264;51.296;-0.602;2023-02-28T00:19:50;103022.03;;;5.67;92.69
50356;BME280;36264;51.296;-0.602;2023-02-28T00:22:17;103024.44;;;5.60;92.70
50356;BME280;36264;51.296;-0.602;2023-02-28T00:24:43;103020.88;;;5.55;92.62
50356;BME280;36264;51.296;-0.602;2023-02-28T00:27:09;103020.78;;;5.52;93.00
50356;BME280;36264;51.296;-0.602;2023-02-28T00:29:34;103021.50;;;5.47;93.14
50356;BME280;36264;51.296;-0.602;2023-02-28T00:32:00;103026.53;;;5.42;92.98
50356;BME280;36264;51.296;-0.602;2023-02-28T00:34:25;103030.63;;;5.35;93.17
50356;BME280;36264;51.296;-0.602;2023-02-28T00:36:50;103022.75;;;5.29;93.11
50356;BME280;36264;51.296;-0.602;2023-02-28T00:39:16;103026.00;;;5.22;93.38
50356;BME280;36264;51.296;-0.602;2023-02-28T00:41:41;103020.88;;;5.23;93.73
50356;BME280;36264;51.296;-0.602;2023-02-28T00:44:07;103021.69;;;5.22;94.04
50356;BME280;36264;51.296;-0.602;2023-02-28T00:46:32;103014.78;;;5.21;93.93
50356;BME280;36264;51.296;-0.602;2023-02-28T00:48:58;103019.72;;;5.14;93.73
50356;BME280;36264;51.296;-0.602;2023-02-28T00:51:23;103022.16;;;5.09;94.74
50356;BME280;36264;51.296;-0.602;2023-02-28T00:53:49;103023.06;;;5.10;94.80
50356;BME280;36264;51.296;-0.602;2023-02-28T00:56:14;103028.91;;;5.04;94.61
50356;BME280;36264;51.296;-0.602;2023-02-28T00:58:40;103039.06;;;4.99;95.09
50356;BME280;36264;51.296;-0.602;2023-02-28T01:01:05;103041.50;;;4.95;95.48
50356;BME280;36264;51.296;-0.602;2023-02-28T01:03:31;103036.34;;;4.95;96.06
50356;BME280;36264;51.296;-0.602;2023-02-28T01:05:56;103037.16;;;4.92;95.56
50356;BME280;36264;51.296;-0.602;2023-02-28T01:08:22;103033.75;;;4.93;95.61
50356;BME280;36264;51.296;-0.602;2023-02-28T01:10:48;103031.06;;;4.90;95.57
50356;BME280;36264;51.296;-0.602;2023-02-28T01:13:13;103031.91;;;4.89;95.65
50356;BME280;36264;51.296;-0.602;2023-02-28T01:15:51;103040.50;;;4.89;95.88
50356;BME280;36264;51.296;-0.602;2023-02-28T01:18:17;103038.69;;;4.85;96.12
50356;BME280;36264;51.296;-0.602;2023-02-28T01:20:43;103043.69;;;4.81;96.37
50356;BME280;36264;51.296;-0.602;2023-02-28T01:23:08;103039.28;;;4.77;96.49
50356;BME280;36264;51.296;-0.602;2023-02-28T01:25:37;103047.00;;;4.77;95.88
50356;BME280;36264;51.296;-0.602;2023-02-28T01:28:03;103051.09;;;4.70;96.23
50356;BME280;36264;51.296;-0.602;2023-02-28T01:30:28;103047.53;;;4.65;95.87
50356;BME280;36264;51.296;-0.602;2023-02-28T01:32:54;103051.69;;;4.61;95.61
50356;BME280;36264;51.296;-0.602;2023-02-28T01:35:19;103048.97;;;4.57;96.58
50356;BME280;36264;51.296;-0.602;2023-02-28T01:37:45;103041.19;;;4.55;96.92
50356;BME280;36264;51.296;-0.602;2023-02-28T01:40:11;103046.22;;;4.50;96.41
50356;BME280;36264;51.296;-0.602;2023-02-28T01:42:37;103049.41;;;4.43;96.09
50356;BME280;36264;51.296;-0.602;2023-02-28T01:45:19;103050.28;;;4.44;95.82
50356;BME280;36264;51.296;-0.602;2023-02-28T01:47:48;103050.03;;;4.36;95.39
50356;BME280;36264;51.296;-0.602;2023-02-28T01:50:19;103044.78;;;4.33;96.46
50356;BME280;36264;51.296;-0.602;2023-02-28T01:52:46;103053.25;;;4.29;96.47
50356;BME280;36264;51.296;-0.602;2023-02-28T01:55:12;103051.28;;;4.22;96.89
50356;BME280;36264;51.296;-0.602;2023-02-28T01:57:42;103052.13;;;4.21;96.92
50356;BME280;36264;51.296;-0.602;2023-02-28T02:00:13;103051.03;;;4.12;96.29
50356;BME280;36264;51.296;-0.602;2023-02-28T02:02:46;103052.59;;;4.09;96.39
50356;BME280;36264;51.296;-0.602;2023-02-28T02:05:31;103053.28;;;4.03;96.57
50356;BME280;36264;51.296;-0.602;2023-02-28T02:08:05;103051.47;;;4.01;97.43
50356;BME280;36264;51.296;-0.602;2023-02-28T02:10:39;103050.59;;;4.00;97.65
50356;BME280;36264;51.296;-0.602;2023-02-28T02:22:10;103046.22;;;3.97;97.86
50356;BME280;36264;51.296;-0.602;2023-02-28T02:35:46;103039.75;;;3.83;98.37
50356;BME280;36264;51.296;-0.602;2023-02-28T02:43:24;103049.06;;;3.79;98.54
50356;BME280;36264;51.296;-0.602;2023-02-28T02:45:55;103043.91;;;3.79;99.03
50356;BME280;36264;51.296;-0.602;2023-02-28T02:48:24;103043.88;;;3.78;100.00
50356;BME280;36264;51.296;-0.602;2023-02-28T02:50:54;103046.50;;;3.79;99.61
50356;BME280;36264;51.296;-0.602;2023-02-28T02:53:25;103043.88;;;3.78;99.10
50356;BME280;36264;51.296;-0.602;2023-02-28T02:55:54;103042.09;;;3.77;99.38
50356;BME280;36264;51.296;-0.602;2023-02-28T02:58:32;103033.63;;;3.79;98.84
50356;BME280;36264;51.296;-0.602;2023-02-28T03:01:01;103034.25;;;3.72;100.00
50356;BME280;36264;51.296;-0.602;2023-02-28T03:03:29;103036.81;;;3.72;99.84
50356;BME280;36264;51.296;-0.602;2023-02-28T03:06:00;103045.41;;;3.73;99.67
50356;BME280;36264;51.296;-0.602;2023-02-28T03:08:27;103042.78;;;3.71;99.57
50356;BME280;36264;51.296;-0.602;2023-02-28T03:10:57;103032.50;;;3.71;100.00
50356;BME280;36264;51.296;-0.602;2023-02-28T03:16:39;103028.59;;;3.57;100.00
50356;BME280;36264;51.296;-0.602;2023-02-28T03:24:43;103035.34;;;3.55;100.00
50356;BME280;36264;51.296;-0.602;2023-02-28T03:30:45;103019.19;;;3.57;100.00
50356;BME280;36264;51.296;-0.602;2023-02-28T03:32:58;103017.59;;;3.61;100.00
50356;BME280;36264;51.296;-0.602;2023-02-28T03:35:30;103025.44;;;3.66;100.00
50356;BME280;36264;51.296;-0.602;2023-02-28T03:37:59;103015.06;;;3.62;100.00
50356;BME280;36264;51.296;-0.602;2023-02-28T03:40:28;103018.44;;;3.61;100.00
50356;BME280;36264;51.296;-0.602;2023-02-28T03:43:00;103016.78;;;3.62;100.00
50356;BME280;36264;51.296;-0.602;2023-02-28T03:45:33;103027.91;;;3.62;100.00
50356;BME280;36264;51.296;-0.602;2023-02-28T03:48:15;103027.84;;;3.61;100.00
50356;BME280;36264;51.296;-0.602;2023-02-28T03:50:43;103034.66;;;3.59;100.00
50356;BME280;36264;51.296;-0.602;2023-02-28T03:56:17;103044.81;;;3.56;100.00
50356;BME280;36264;51.296;-0.602;2023-02-28T03:58:51;103045.53;;;3.52;100.00
50356;BME280;36264;51.296;-0.602;2023-02-28T04:01:24;103042.03;;;3.50;100.00
50356;BME280;36264;51.296;-0.602;2023-02-28T04:03:51;103048.81;;;3.48;100.00
50356;BME280;36264;51.296;-0.602;2023-02-28T04:06:19;103052.16;;;3.45;100.00
50356;BME280;36264;51.296;-0.602;2023-02-28T04:08:45;103045.13;;;3.41;100.00
50356;BME280;36264;51.296;-0.602;2023-02-28T04:11:36;103045.06;;;3.39;99.93
50356;BME280;36264;51.296;-0.602;2023-02-28T04:14:03;103042.31;;;3.33;99.69
50356;BME280;36264;51.296;-0.602;2023-02-28T04:16:30;103052.44;;;3.29;99.74
50356;BME280;36264;51.296;-0.602;2023-02-28T04:18:56;103045.47;;;3.26;100.00
50356;BME280;36264;51.296;-0.602;2023-02-28T04:21:49;103053.13;;;3.24;100.00
50356;BME280;36264;51.296;-0.602;2023-02-28T04:24:20;103057.44;;;3.25;100.00
50356;BME280;36264;51.296;-0.602;2023-02-28T04:26:47;103054.78;;;3.22;100.00
50356;BME280;36264;51.296;-0.602;2023-02-28T04:29:19;103062.47;;;3.22;100.00
50356;BME280;36264;51.296;-0.602;2023-02-28T04:31:44;103056.38;;;3.20;100.00
50356;BME280;36264;51.296;-0.602;2023-02-28T04:34:10;103063.28;;;3.21;100.00
50356;BME280;36264;51.296;-0.602;2023-02-28T04:36:35;103058.09;;;3.20;100.00
50356;BME280;36264;51.296;-0.602;2023-02-28T04:39:00;103063.91;;;3.14;100.00
50356;BME280;36264;51.296;-0.602;2023-02-28T04:41:26;103071.44;;;3.10;100.00
50356;BME280;36264;51.296;-0.602;2023-02-28T04:43:52;103072.13;;;3.05;99.67
50356;BME280;36264;51.296;-0.602;2023-02-28T04:46:18;103079.81;;;3.05;100.00
50356;BME280;36264;51.296;-0.602;2023-02-28T04:48:43;103076.31;;;3.03;100.00
50356;BME280;36264;51.296;-0.602;2023-02-28T04:51:12;103077.19;;;3.04;99.89
50356;BME280;36264;51.296;-0.602;2023-02-28T04:53:39;103083.06;;;3.01;100.00
50356;BME280;36264;51.296;-0.602;2023-02-28T04:56:06;103077.06;;;3.01;100.00
50356;BME280;36264;51.296;-0.602;2023-02-28T04:58:32;103086.47;;;3.00;100.00
50356;BME280;36264;51.296;-0.602;2023-02-28T05:01:04;103085.63;;;3.00;100.00
50356;BME280;36264;51.296;-0.602;2023-02-28T05:03:29;103082.09;;;2.98;100.00
50356;BME280;36264;51.296;-0.602;2023-02-28T05:05:55;103087.34;;;3.01;100.00
50356;BME280;36264;51.296;-0.602;2023-02-28T05:08:20;103083.03;;;3.00;100.00
50356;BME280;36264;51.296;-0.602;2023-02-28T05:10:45;103087.28;;;2.99;100.00
50356;BME280;36264;51.296;-0.602;2023-02-28T05:13:14;103084.78;;;3.01;100.00
50356;BME280;36264;51.296;-0.602;2023-02-28T05:15:39;103087.03;;;2.93;99.47
50356;BME280;36264;51.296;-0.602;2023-02-28T05:18:05;103084.13;;;2.84;100.00
50356;BME280;36264;51.296;-0.602;2023-02-28T05:20:30;103092.78;;;2.86;99.38
50356;BME280;36264;51.296;-0.602;2023-02-28T05:22:57;103088.38;;;2.83;99.35
50356;BME280;36264;51.296;-0.602;2023-02-28T05:25:23;103091.25;;;2.91;98.71
50356;BME280;36264;51.296;-0.602;2023-02-28T05:27:49;103091.31;;;2.93;98.20
50356;BME280;36264;51.296;-0.602;2023-02-28T05:30:15;103088.94;;;2.75;98.35
50356;BME280;36264;51.296;-0.602;2023-02-28T05:32:40;103090.41;;;2.69;99.06
50356;BME280;36264;51.296;-0.602;2023-02-28T05:35:12;103100.69;;;2.69;99.84
50356;BME280;36264;51.296;-0.602;2023-02-28T05:37:38;103100.75;;;2.71;100.00
50356;BME280;36264;51.296;-0.602;2023-02-28T05:40:05;103094.06;;;2.75;100.00
50356;BME280;36264;51.296;-0.602;2023-02-28T05:42:32;103098.34;;;2.76;100.00
50356;BME280;36264;51.296;-0.602;2023-02-28T05:44:58;103101.88;;;2.78;100.00
50356;BME280;36264;51.296;-0.602;2023-02-28T05:47:24;103102.69;;;2.77;100.00
50356;BME280;36264;51.296;-0.602;2023-02-28T05:49:49;103095.72;;;2.74;99.10
50356;BME280;36264;51.296;-0.602;2023-02-28T05:52:14;103099.00;;;2.70;99.47
50356;BME280;36264;51.296;-0.602;2023-02-28T05:54:40;103097.13;;;2.66;98.92
50356;BME280;36264;51.296;-0.602;2023-02-28T05:57:06;103098.69;;;2.62;99.45
50356;BME280;36264;51.296;-0.602;2023-02-28T05:59:32;103094.31;;;2.60;100.00
50356;BME280;36264;51.296;-0.602;2023-02-28T06:01:57;103101.25;;;2.62;99.29
50356;BME280;36264;51.296;-0.602;2023-02-28T06:04:22;103101.16;;;2.59;99.15
50356;BME280;36264;51.296;-0.602;2023-02-28T06:06:49;103102.84;;;2.59;99.23
50356;BME280;36264;51.296;-0.602;2023-02-28T06:09:15;103096.75;;;2.57;98.94
50356;BME280;36264;51.296;-0.602;2023-02-28T06:11:41;103105.22;;;2.54;98.73
50356;BME280;36264;51.296;-0.602;2023-02-28T06:14:07;103105.09;;;2.51;98.57
50356;BME280;36264;51.296;-0.602;2023-02-28T06:16:33;103114.41;;;2.49;98.51
50356;BME280;36264;51.296;-0.602;2023-02-28T06:19:01;103112.59;;;2.46;99.48
50356;BME280;36264;51.296;-0.602;2023-02-28T06:21:28;103102.34;;;2.46;100.00
50356;BME280;36264;51.296;-0.602;2023-02-28T06:23:53;103107.59;;;2.49;100.00
50356;BME280;36264;51.296;-0.602;2023-02-28T06:26:19;103107.59;;;2.49;100.00
50356;BME280;36264;51.296;-0.602;2023-02-28T06:28:45;103101.56;;;2.49;100.00
50356;BME280;36264;51.296;-0.602;2023-02-28T06:31:13;103111.97;;;2.52;100.00
50356;BME280;36264;51.296;-0.602;2023-02-28T06:33:39;103100.91;;;2.53;100.00
50356;BME280;36264;51.296;-0.602;2023-02-28T06:36:06;103108.59;;;2.53;100.00
50356;BME280;36264;51.296;-0.602;2023-02-28T06:38:32;103100.91;;;2.53;100.00
50356;BME280;36264;51.296;-0.602;2023-02-28T06:40:59;103097.41;;;2.51;100.00
50356;BME280;36264;51.296;-0.602;2023-02-28T06:43:25;103109.41;;;2.52;100.00
50356;BME280;36264;51.296;-0.602;2023-02-28T06:46:00;103107.84;;;2.56;100.00
50356;BME280;36264;51.296;-0.602;2023-02-28T06:48:27;103107.72;;;2.52;100.00
50356;BME280;36264;51.296;-0.602;2023-02-28T06:51:01;103108.59;;;2.53;100.00
50356;BME280;36264;51.296;-0.602;2023-02-28T06:53:27;103115.34;;;2.51;100.00
50356;BME280;36264;51.296;-0.602;2023-02-28T06:55:52;103104.31;;;2.53;100.00
50356;BME280;36264;51.296;-0.602;2023-02-28T06:58:17;103109.47;;;2.53;100.00
50356;BME280;36264;51.296;-0.602;2023-02-28T07:00:45;103110.59;;;2.60;100.00
50356;BME280;36264;51.296;-0.602;2023-02-28T07:03:12;103104.88;;;2.67;100.00
50356;BME280;36264;51.296;-0.602;2023-02-28T07:05:38;103114.34;;;2.68;100.00
50356;BME280;36264;51.296;-0.602;2023-02-28T07:08:05;103117.16;;;2.75;100.00
50356;BME280;36264;51.296;-0.602;2023-02-28T07:10:31;103118.31;;;2.83;100.00
50356;BME280;36264;51.296;-0.602;2023-02-28T07:12:57;103117.72;;;2.90;100.00
50356;BME280;36264;51.296;-0.602;2023-02-28T07:15:23;103117.84;;;2.93;100.00
50356;BME280;36264;51.296;-0.602;2023-02-28T07:17:48;103121.44;;;2.97;100.00
50356;BME280;36264;51.296;-0.602;2023-02-28T07:20:13;103132.69;;;3.00;100.00
50356;BME280;36264;51.296;-0.602;2023-02-28T07:22:39;103134.41;;;3.00;100.00
50356;BME280;36264;51.296;-0.602;2023-02-28T07:25:05;103132.63;;;2.99;100.00
50356;BME280;36264;51.296;-0.602;2023-02-28T07:27:31;103131.84;;;3.01;100.00
50356;BME280;36264;51.296;-0.602;2023-02-28T07:29:56;103128.41;;;3.01;100.00
50356;BME280;36264;51.296;-0.602;2023-02-28T07:32:22;103134.53;;;3.04;100.00
50356;BME280;36264;51.296;-0.602;2023-02-28T07:34:47;103131.28;;;3.08;100.00
50356;BME280;36264;51.296;-0.602;2023-02-28T07:37:13;103111.72;;;3.12;100.00
50356;BME280;36264;51.296;-0.602;2023-02-28T07:39:39;103122.28;;;3.20;100.00
50356;BME280;36264;51.296;-0.602;2023-02-28T07:42:07;103117.28;;;3.23;100.00
50356;BME280;36264;51.296;-0.602;2023-02-28T07:44:35;103120.72;;;3.23;100.00
50356;BME280;36264;51.296;-0.602;2023-02-28T07:47:08;103119.91;;;3.24;100.00
50356;BME280;36264;51.296;-0.602;2023-02-28T07:49:37;103122.81;;;3.34;100.00
50356;BME280;36264;51.296;-0.602;2023-02-28T07:52:04;103129.78;;;3.36;100.00
50356;BME280;36264;51.296;-0.602;2023-02-28T07:54:30;103130.75;;;3.40;100.00
50356;BME280;36264;51.296;-0.602;2023-02-28T07:56:55;103131.03;;;3.48;100.00
50356;BME280;36264;51.296;-0.602;2023-02-28T07:59:20;103128.81;;;3.57;100.00
50356;BME280;36264;51.296;-0.602;2023-02-28T08:01:46;103141.09;;;3.66;100.00
50356;BME280;36264;51.296;-0.602;2023-02-28T08:04:11;103122.53;;;3.73;100.00
50356;BME280;36264;51.296;-0.602;2023-02-28T08:06:36;103135.63;;;3.80;100.00
50356;BME280;36264;51.296;-0.602;2023-02-28T08:09:02;103127.91;;;3.80;100.00
50356;BME280;36264;51.296;-0.602;2023-02-28T08:11:27;103128.97;;;3.86;100.00
50356;BME280;36264;51.296;-0.602;2023-02-28T08:13:54;103124.59;;;3.83;100.00
50356;BME280;36264;51.296;-0.602;2023-02-28T08:16:19;103119.50;;;3.85;100.00
50356;BME280;36264;51.296;-0.602;2023-02-28T08:18:48;103125.78;;;3.93;100.00
50356;BME280;36264;51.296;-0.602;2023-02-28T08:21:14;103132.06;;;4.01;100.00
50356;BME280;36264;51.296;-0.602;2023-02-28T08:23:40;103129.81;;;4.10;100.00
50356;BME280;36264;51.296;-0.602;2023-02-28T08:26:05;103131.88;;;4.21;100.00
50356;BME280;36264;51.296;-0.602;2023-02-28T08:28:31;103132.19;;;4.30;100.00
50356;BME280;36264;51.296;-0.602;2023-02-28T08:30:58;103136.75;;;4.39;100.00
50356;BME280;36264;51.296;-0.602;2023-02-28T08:33:24;103126.88;;;4.51;100.00
50356;BME280;36264;51.296;-0.602;2023-02-28T08:35:53;103132.41;;;4.63;100.00
50356;BME280;36264;51.296;-0.602;2023-02-28T08:38:19;103138.53;;;4.67;100.00
50356;BME280;36264;51.296;-0.602;2023-02-28T08:40:44;103135.22;;;4.71;100.00
50356;BME280;36264;51.296;-0.602;2023-02-28T08:43:09;103136.09;;;4.71;100.00
50356;BME280;36264;51.296;-0.602;2023-02-28T08:45:35;103135.34;;;4.76;100.00
50356;BME280;36264;51.296;-0.602;2023-02-28T08:48:00;103137.22;;;4.80;100.00
50356;BME280;36264;51.296;-0.602;2023-02-28T08:50:25;103130.53;;;4.86;100.00
50356;BME280;36264;51.296;-0.602;2023-02-28T08:52:51;103139.31;;;4.93;100.00
50356;BME280;36264;51.296;-0.602;2023-02-28T08:55:16;103139.56;;;5.01;100.00
50356;BME280;36264;51.296;-0.602;2023-02-28T08:57:41;103137.13;;;5.05;100.00
50356;BME280;36264;51.296;-0.602;2023-02-28T09:00:07;103131.34;;;5.13;100.00
50356;BME280;36264;51.296;-0.602;2023-02-28T09:02:33;103123.75;;;5.17;100.00
50356;BME280;36264;51.296;-0.602;2023-02-28T09:04:58;103132.00;;;5.36;100.00
50356;BME280;36264;51.296;-0.602;2023-02-28T09:07:24;103135.84;;;5.50;100.00
50356;BME280;36264;51.296;-0.602;2023-02-28T09:09:50;103131.91;;;5.61;100.00
50356;BME280;36264;51.296;-0.602;2023-02-28T09:12:26;103131.41;;;5.75;100.00
50356;BME280;36264;51.296;-0.602;2023-02-28T09:14:52;103128.91;;;5.78;100.00
50356;BME280;36264;51.296;-0.602;2023-02-28T09:17:18;103131.72;;;5.87;100.00
50356;BME280;36264;51.296;-0.602;2023-02-28T09:19:44;103133.59;;;5.93;100.00
50356;BME280;36264;51.296;-0.602;2023-02-28T09:22:10;103129.56;;;6.03;100.00
50356;BME280;36264;51.296;-0.602;2023-02-28T09:24:36;103128.16;;;6.14;100.00
50356;BME280;36264;51.296;-0.602;2023-02-28T09:27:02;103124.09;;;6.24;100.00
50356;BME280;36264;51.296;-0.602;2023-02-28T09:29:28;103116.47;;;6.28;100.00
50356;BME280;36264;51.296;-0.602;2023-02-28T09:31:53;103118.22;;;6.29;100.00
50356;BME280;36264;51.296;-0.602;2023-02-28T09:34:19;103122.66;;;6.35;100.00
50356;BME280;36264;51.296;-0.602;2023-02-28T09:36:45;103112.41;;;6.38;100.00
50356;BME280;36264;51.296;-0.602;2023-02-28T09:39:10;103116.00;;;6.45;100.00
50356;BME280;36264;51.296;-0.602;2023-02-28T09:41:39;103111.84;;;6.51;100.00
50356;BME280;36264;51.296;-0.602;2023-02-28T09:44:18;103113.81;;;6.60;100.00
50356;BME280;36264;51.296;-0.602;2023-02-28T09:46:50;103109.59;;;6.65;100.00
50356;BME280;36264;51.296;-0.602;2023-02-28T09:49:20;103113.09;;;6.67;100.00
50356;BME280;36264;51.296;-0.602;2023-02-28T09:51:50;103105.50;;;6.74;100.00
50356;BME280;36264;51.296;-0.602;2023-02-28T09:54:19;103113.47;;;6.84;100.00
50356;BME280;36264;51.296;-0.602;2023-02-28T09:57:13;103110.22;;;6.92;100.00
50356;BME280;36264;51.296;-0.602;2023-02-28T10:05:14;103117.75;;;7.22;100.00
50356;BME280;36264;51.296;-0.602;2023-02-28T10:13:05;103095.81;;;7.46;100.00
50356;BME280;36264;51.296;-0.602;2023-02-28T10:15:32;103097.59;;;7.48;100.00
50356;BME280;36264;51.296;-0.602;2023-02-28T10:18:06;103094.25;;;7.54;100.00
50356;BME280;36264;51.296;-0.602;2023-02-28T10:20:38;103096.03;;;7.58;100.00
50356;BME280;36264;51.296;-0.602;2023-02-28T10:23:09;103097.84;;;7.62;100.00
50356;BME280;36264;51.296;-0.602;2023-02-28T10:25:38;103098.84;;;7.69;100.00
50356;BME280;36264;51.296;-0.602;2023-02-28T10:28:11;103085.25;;;7.79;100.00
50356;BME280;36264;51.296;-0.602;2023-02-28T10:30:40;103084.38;;;7.80;100.00
50356;BME280;36264;51.296;-0.602;2023-02-28T10:33:17;103080.97;;;7.81;100.00
50356;BME280;36264;51.296;-0.602;2023-02-28T10:35:44;103075.13;;;7.93;100.00
50356;BME280;36264;51.296;-0.602;2023-02-28T10:38:16;103079.63;;;8.03;100.00
50356;BME280;36264;51.296;-0.602;2023-02-28T10:40:42;103078.84;;;8.07;100.00
50356;BME280;36264;51.296;-0.602;2023-02-28T10:45:39;103080.59;;;8.10;100.00
50356;BME280;36264;51.296;-0.602;2023-02-28T10:48:36;103085.78;;;8.11;100.00
50356;BME280;36264;51.296;-0.602;2023-02-28T10:51:03;103076.34;;;8.15;100.00
50356;BME280;36264;51.296;-0.602;2023-02-28T11:01:21;103078.06;;;8.14;100.00
50356;BME280;36264;51.296;-0.602;2023-02-28T11:03:48;103078.06;;;8.14;100.00
50356;BME280;36264;51.296;-0.602;2023-02-28T11:06:29;103075.44;;;8.11;100.00
50356;BME280;36264;51.296;-0.602;2023-02-28T11:09:26;103067.63;;;8.08;100.00
50356;BME280;36264;51.296;-0.602;2023-02-28T11:11:52;103067.75;;;8.16;100.00
50356;BME280;36264;51.296;-0.602;2023-02-28T11:14:25;103067.81;;;8.21;100.00
50356;BME280;36264;51.296;-0.602;2023-02-28T11:16:52;103065.25;;;8.21;100.00
50356;BME280;36264;51.296;-0.602;2023-02-28T11:19:35;103059.34;;;8.31;100.00
50356;BME280;36264;51.296;-0.602;2023-02-28T11:22:04;103062.84;;;8.33;100.00
50356;BME280;36264;51.296;-0.602;2023-02-28T11:24:34;103061.16;;;8.35;100.00
50356;BME280;36264;51.296;-0.602;2023-02-28T11:27:00;103054.16;;;8.31;100.00
50356;BME280;36264;51.296;-0.602;2023-02-28T11:29:32;103055.91;;;8.32;100.00
50356;BME280;36264;51.296;-0.602;2023-02-28T11:34:32;103048.97;;;8.29;100.00
50356;BME280;36264;51.296;-0.602;2023-02-28T11:36:59;103048.13;;;8.30;100.00
50356;BME280;36264;51.296;-0.602;2023-02-28T11:39:26;103052.38;;;8.27;100.00
50356;BME280;36264;51.296;-0.602;2023-02-28T11:52:56;103034.38;;;8.33;100.00
50356;BME280;36264;51.296;-0.602;2023-02-28T11:55:38;103031.81;;;8.34;100.00
50356;BME280;36264;51.296;-0.602;2023-02-28T12:06:57;103002.63;;;8.45;100.00
50356;BME280;36264;51.296;-0.602;2023-02-28T12:25:02;102977.84;;;8.64;100.00
50356;BME280;36264;51.296;-0.602;2023-02-28T12:27:40;102970.06;;;8.65;100.00
50356;BME280;36264;51.296;-0.602;2023-02-28T12:32:44;102976.94;;;8.62;100.00
50356;BME280;36264;51.296;-0.602;2023-02-28T12:35:14;102977.72;;;8.56;100.00
50356;BME280;36264;51.296;-0.602;2023-02-28T12:38:05;102980.34;;;8.58;100.00
50356;BME280;36264;51.296;-0.602;2023-02-28T12:43:09;102967.38;;;8.56;100.00
50356;BME280;36264;51.296;-0.602;2023-02-28T12:45:48;102972.56;;;8.58;100.00
50356;BME280;36264;51.296;-0.602;2023-02-28T12:48:20;102958.66;;;8.51;100.00
50356;BME280;36264;51.296;-0.602;2023-02-28T12:50:47;102952.59;;;8.47;100.00
50356;BME280;36264;51.296;-0.602;2023-02-28T12:53:42;102950.84;;;8.48;100.00
50356;BME280;36264;51.296;-0.602;2023-02-28T12:58:57;102932.06;;;8.63;100.00
50356;BME280;36264;51.296;-0.602;2023-02-28T13:01:57;102922.59;;;8.66;100.00
50356;BME280;36264;51.296;-0.602;2023-02-28T13:04:34;102911.38;;;8.69;100.00
50356;BME280;36264;51.296;-0.602;2023-02-28T13:09:52;102897.84;;;8.93;100.00
50356;BME280;36264;51.296;-0.602;2023-02-28T13:12:18;102891.78;;;8.93;100.00
50356;BME280;36264;51.296;-0.602;2023-02-28T13:14:45;102904.00;;;9.03;100.00
50356;BME280;36264;51.296;-0.602;2023-02-28T13:17:14;102909.16;;;9.01;100.00
50356;BME280;36264;51.296;-0.602;2023-02-28T13:19:45;102892.72;;;8.98;100.00
50356;BME280;36264;51.296;-0.602;2023-02-28T13:24:55;102888.44;;;9.03;100.00
50356;BME280;36264;51.296;-0.602;2023-02-28T13:27:32;102890.16;;;9.04;100.00
50356;BME280;36264;51.296;-0.602;2023-02-28T13:29:59;102872.03;;;9.01;100.00
50356;BME280;36264;51.296;-0.602;2023-02-28T13:39:52;102865.97;;;9.03;100.00
50356;BME280;36264;51.296;-0.602;2023-02-28T13:49:54;102858.19;;;9.02;100.00
50356;BME280;36264;51.296;-0.602;2023-02-28T13:52:23;102856.47;;;9.05;100.00
50356;BME280;36264;51.296;-0.602;2023-02-28T14:03:07;102856.41;;;8.96;100.00
50356;BME280;36264;51.296;-0.602;2023-02-28T14:05:36;102852.94;;;8.96;100.00
50356;BME280;36264;51.296;-0.602;2023-02-28T14:08:17;102846.09;;;8.99;100.00
50356;BME280;36264;51.296;-0.602;2023-02-28T14:10:48;102852.97;;;9.00;100.00
50356;BME280;36264;51.296;-0.602;2023-02-28T14:13:43;102857.31;;;9.00;100.00
50356;BME280;36264;51.296;-0.602;2023-02-28T14:16:24;102856.47;;;9.01;100.00
50356;BME280;36264;51.296;-0.602;2023-02-28T14:18:56;102846.09;;;9.01;100.00
50356;BME280;36264;51.296;-0.602;2023-02-28T14:21:34;102846.09;;;9.04;100.00
50356;BME280;36264;51.296;-0.602;2023-02-28T14:27:08;102837.41;;;8.99;100.00
50356;BME280;36264;51.296;-0.602;2023-02-28T14:32:15;102830.53;;;9.01;100.00
50356;BME280;36264;51.296;-0.602;2023-02-28T14:37:46;102815.81;;;8.98;100.00
50356;BME280;36264;51.296;-0.602;2023-02-28T14:40:27;102815.81;;;8.97;100.00
50356;BME280;36264;51.296;-0.602;2023-02-28T14:42:58;102811.53;;;9.02;100.00
50356;BME280;36264;51.296;-0.602;2023-02-28T14:45:27;102806.38;;;9.05;100.00
50356;BME280;36264;51.296;-0.602;2023-02-28T14:47:54;102811.59;;;9.08;100.00
50356;BME280;36264;51.296;-0.602;2023-02-28T14:50:29;102808.19;;;9.15;100.00
50356;BME280;36264;51.296;-0.602;2023-02-28T14:52:56;102803.84;;;9.14;100.00
50356;BME280;36264;51.296;-0.602;2023-02-28T14:55:30;102808.22;;;9.18;100.00
50356;BME280;36264;51.296;-0.602;2023-02-28T14:57:58;102800.44;;;9.17;100.00
50356;BME280;36264;51.296;-0.602;2023-02-28T15:00:31;102803.00;;;9.15;100.00
50356;BME280;36264;51.296;-0.602;2023-02-28T15:02:59;102801.28;;;9.16;100.00
50356;BME280;36264;51.296;-0.602;2023-02-28T15:05:30;102796.94;;;9.16;100.00
50356;BME280;36264;51.296;-0.602;2023-02-28T15:08:06;102790.06;;;9.17;100.00
50356;BME280;36264;51.296;-0.602;2023-02-28T15:10:35;102781.34;;;9.12;100.00
50356;BME280;36264;51.296;-0.602;2023-02-28T15:13:02;102782.22;;;9.07;100.00
50356;BME280;36264;51.296;-0.602;2023-02-28T15:18:52;102776.19;;;9.15;100.00